Time;durP1;ratioP1;P1;durP2;ratioP2;P2;SDS_P1;SDS_P2;PMS_P1;PMS_P2;Temp;Humidity;BMP_temperature;BMP_pressure;BME280_temperature;BME280_humidity;BME280_pressure;Samples;Min_cycle;Max_cycle;Signal;HPM_P1;HPM_P2
2021/06/25 00:00:55;;;;;;;11.02;6.40;;;18.20;61.10;;;;;;4939396;29;20089;-80
2021/06/25 00:03:21;;;;;;;11.82;6.85;;;18.20;61.60;;;;;;4939863;29;20051;-80
2021/06/25 00:05:47;;;;;;;11.57;6.90;;;18.20;62.50;;;;;;4939939;29;20031;-80
2021/06/25 00:08:12;;;;;;;10.93;6.80;;;18.20;61.70;;;;;;4939529;29;20070;-80
2021/06/25 00:10:38;;;;;;;11.50;6.47;;;18.20;61.60;;;;;;4939774;29;20448;-80
2021/06/25 00:13:04;;;;;;;10.65;6.28;;;18.20;61.30;;;;;;4939119;29;20395;-80
2021/06/25 00:15:30;;;;;;;10.98;5.50;;;18.10;61.10;;;;;;4938990;29;20058;-80
2021/06/25 00:18:00;;;;;;;9.57;5.88;;;18.10;61.00;;;;;;4939239;29;20155;-80
2021/06/25 00:20:27;;;;;;;8.10;5.47;;;18.10;61.50;;;;;;4938573;29;20434;-80
2021/06/25 00:22:53;;;;;;;11.98;6.55;;;18.10;61.10;;;;;;4939403;29;20072;-80
2021/06/25 00:25:19;;;;;;;9.27;5.68;;;18.10;61.10;;;;;;4937727;29;20522;-79
2021/06/25 00:27:45;;;;;;;10.13;5.38;;;18.10;61.10;;;;;;4935618;29;20032;-80
2021/06/25 00:30:12;;;;;;;7.90;5.30;;;18.10;61.50;;;;;;4938778;29;20460;-79
2021/06/25 00:32:38;;;;;;;8.77;5.40;;;18.10;61.50;;;;;;4939661;29;20025;-79
2021/06/25 00:35:04;;;;;;;9.63;5.60;;;18.10;61.50;;;;;;4938145;29;20024;-79
2021/06/25 00:37:30;;;;;;;12.02;7.25;;;18.10;62.50;;;;;;4934542;29;20016;-79
2021/06/25 00:39:56;;;;;;;13.65;7.50;;;18.10;62.70;;;;;;4932164;29;20039;-79
2021/06/25 00:42:22;;;;;;;12.00;7.53;;;18.10;62.90;;;;;;4938970;29;20027;-79
2021/06/25 00:44:48;;;;;;;12.93;6.80;;;18.00;62.40;;;;;;4939223;29;20044;-78
2021/06/25 00:47:14;;;;;;;12.20;6.90;;;18.00;62.00;;;;;;4939025;29;20024;-79
2021/06/25 00:49:40;;;;;;;11.15;6.47;;;18.00;61.60;;;;;;4937592;29;20031;-79
2021/06/25 00:52:07;;;;;;;11.40;6.30;;;17.90;61.40;;;;;;4939179;29;20036;-79
2021/06/25 00:54:33;;;;;;;13.55;7.13;;;17.90;61.40;;;;;;4939166;29;20024;-80
2021/06/25 00:56:59;;;;;;;10.43;7.03;;;17.90;61.40;;;;;;4939605;29;20075;-80
2021/06/25 00:59:25;;;;;;;11.70;6.38;;;17.80;61.30;;;;;;4938803;29;20122;-80
2021/06/25 01:01:51;;;;;;;10.93;6.22;;;17.80;61.10;;;;;;4939107;29;20040;-80
2021/06/25 01:04:17;;;;;;;11.13;6.57;;;17.70;61.00;;;;;;4939365;29;20446;-80
2021/06/25 01:06:43;;;;;;;9.48;6.38;;;17.70;60.90;;;;;;4942730;29;20063;-80
2021/06/25 01:09:09;;;;;;;11.82;7.10;;;17.70;61.20;;;;;;4940710;29;20046;-80
2021/06/25 01:11:37;;;;;;;11.38;7.10;;;17.70;61.30;;;;;;4942794;29;20036;-80
2021/06/25 01:14:03;;;;;;;10.73;6.15;;;17.70;61.50;;;;;;4933148;29;20029;-80
2021/06/25 01:16:30;;;;;;;9.95;5.80;;;17.70;61.30;;;;;;4939691;29;20031;-81
2021/06/25 01:18:56;;;;;;;11.40;5.60;;;17.70;61.30;;;;;;4938853;29;20020;-81
2021/06/25 01:21:22;;;;;;;10.13;6.07;;;17.70;61.70;;;;;;4941583;29;20171;-81
2021/06/25 01:23:48;;;;;;;10.25;5.63;;;17.70;61.70;;;;;;4942340;29;20051;-81
2021/06/25 01:26:14;;;;;;;8.27;5.40;;;17.70;61.90;;;;;;4941638;29;20443;-81
2021/06/25 01:28:40;;;;;;;9.15;5.30;;;17.70;61.90;;;;;;4941763;29;20024;-81
2021/06/25 01:31:07;;;;;;;10.90;5.85;;;17.70;62.40;;;;;;4941709;29;20082;-80
2021/06/25 01:33:34;;;;;;;9.02;5.95;;;17.70;62.30;;;;;;4937272;29;20028;-80
2021/06/25 01:36:00;;;;;;;9.43;5.65;;;17.70;62.30;;;;;;4937067;29;20543;-80
2021/06/25 01:38:26;;;;;;;9.10;5.72;;;17.70;62.20;;;;;;4933744;29;20136;-80
2021/06/25 01:40:53;;;;;;;10.25;6.13;;;17.80;62.40;;;;;;4941367;29;20435;-81
2021/06/25 01:43:21;;;;;;;9.25;5.82;;;17.70;62.30;;;;;;4942312;29;20024;-79
2021/06/25 01:45:48;;;;;;;9.57;5.40;;;17.70;62.40;;;;;;4941260;29;20048;-79
2021/06/25 01:48:14;;;;;;;9.70;5.38;;;17.70;62.50;;;;;;4940106;29;20031;-79
2021/06/25 01:50:42;;;;;;;9.32;5.90;;;17.80;62.80;;;;;;4942052;29;20024;-80
2021/06/25 01:53:11;;;;;;;9.48;5.72;;;17.70;62.90;;;;;;4941725;29;20020;-80
2021/06/25 01:55:41;;;;;;;9.13;5.40;;;17.70;63.00;;;;;;4940534;29;20023;-80
2021/06/25 01:58:09;;;;;;;8.15;5.50;;;17.70;63.00;;;;;;4937776;29;20027;-80
2021/06/25 02:00:36;;;;;;;7.78;5.40;;;17.70;63.00;;;;;;4940614;29;20043;-80
2021/06/25 02:03:02;;;;;;;10.85;5.50;;;17.70;62.90;;;;;;4942004;29;20390;-80
2021/06/25 02:05:28;;;;;;;8.88;4.95;;;17.70;63.00;;;;;;4939491;29;20114;-80
2021/06/25 02:07:54;;;;;;;7.95;5.43;;;17.70;63.00;;;;;;4940367;29;20027;-80
2021/06/25 02:10:19;;;;;;;8.23;5.28;;;17.70;62.90;;;;;;4939930;29;20043;-79
2021/06/25 02:12:45;;;;;;;9.45;5.90;;;17.70;62.80;;;;;;4941130;29;20099;-80
2021/06/25 02:15:11;;;;;;;9.63;6.03;;;17.70;63.00;;;;;;4939488;29;20034;-79
2021/06/25 02:17:37;;;;;;;8.45;5.55;;;17.80;63.00;;;;;;4939389;29;20031;-80
2021/06/25 02:20:05;;;;;;;10.30;7.20;;;17.70;63.20;;;;;;4938851;29;20040;-80
2021/06/25 02:22:31;;;;;;;10.18;6.55;;;17.80;63.80;;;;;;4941072;29;20024;-79
2021/06/25 02:24:56;;;;;;;12.63;6.97;;;17.80;63.70;;;;;;4929603;29;20418;-80
2021/06/25 02:27:22;;;;;;;11.98;6.78;;;17.80;64.10;;;;;;4931831;29;20435;-80
2021/06/25 02:29:48;;;;;;;11.70;8.05;;;17.80;64.50;;;;;;4938929;29;20387;-79
2021/06/25 02:32:14;;;;;;;11.23;7.20;;;17.80;64.30;;;;;;4941251;29;20043;-79
2021/06/25 02:34:40;;;;;;;12.20;7.45;;;17.80;64.00;;;;;;4932623;29;20031;-79
2021/06/25 02:37:06;;;;;;;10.70;6.97;;;17.80;63.90;;;;;;4940376;29;20032;-79
2021/06/25 02:39:31;;;;;;;9.95;7.05;;;17.80;63.90;;;;;;4937450;29;20049;-80
2021/06/25 02:41:57;;;;;;;10.38;6.43;;;17.80;63.90;;;;;;4940428;29;20031;-80
2021/06/25 02:44:23;;;;;;;13.00;7.85;;;17.80;63.90;;;;;;4940849;29;20423;-79
2021/06/25 02:46:49;;;;;;;10.80;7.20;;;17.80;64.00;;;;;;4938972;29;20035;-79
2021/06/25 02:49:16;;;;;;;9.93;6.55;;;17.80;64.00;;;;;;4941091;29;20028;-80
2021/06/25 02:51:43;;;;;;;10.32;7.35;;;17.80;64.70;;;;;;4940466;29;20028;-80
2021/06/25 02:54:09;;;;;;;12.15;6.95;;;17.70;63.90;;;;;;4939539;29;20039;-79
2021/06/25 02:56:35;;;;;;;12.80;7.60;;;17.80;64.00;;;;;;4940450;29;20399;-80
2021/06/25 02:59:01;;;;;;;12.82;8.20;;;17.70;67.70;;;;;;4938808;29;20027;-80
2021/06/25 03:01:27;;;;;;;12.55;7.78;;;17.70;65.50;;;;;;4939859;29;20028;-80
2021/06/25 03:03:52;;;;;;;11.70;7.13;;;17.70;65.30;;;;;;4940042;29;20031;-80
2021/06/25 03:06:18;;;;;;;10.13;7.22;;;17.70;65.30;;;;;;4940339;29;20092;-80
2021/06/25 03:08:44;;;;;;;10.02;6.60;;;17.70;65.10;;;;;;4939915;29;20479;-79
2021/06/25 03:11:10;;;;;;;9.50;6.10;;;17.70;64.90;;;;;;4939842;29;20028;-78
2021/06/25 03:13:36;;;;;;;10.25;6.50;;;17.70;64.60;;;;;;4940333;29;20063;-79
2021/06/25 03:16:02;;;;;;;10.80;5.70;;;17.70;64.90;;;;;;4940072;29;20067;-79
2021/06/25 03:18:27;;;;;;;9.15;6.28;;;17.70;64.70;;;;;;4937151;29;20510;-79
2021/06/25 03:20:53;;;;;;;9.13;5.78;;;17.70;64.50;;;;;;4939312;29;20027;-80
2021/06/25 03:23:19;;;;;;;11.82;6.25;;;17.70;65.40;;;;;;4940017;29;20039;-79
2021/06/25 03:25:45;;;;;;;8.98;5.82;;;17.70;66.10;;;;;;4935664;29;20027;-80
2021/06/25 03:28:11;;;;;;;10.50;6.10;;;17.70;65.60;;;;;;4938093;29;20498;-79
2021/06/25 03:30:37;;;;;;;9.88;5.75;;;17.70;66.60;;;;;;4938834;29;20032;-79
2021/06/25 03:33:04;;;;;;;11.90;6.68;;;17.70;67.50;;;;;;4940336;29;20028;-79
2021/06/25 03:35:30;;;;;;;10.70;6.25;;;17.70;67.30;;;;;;4935822;29;20031;-79
2021/06/25 03:37:56;;;;;;;11.00;7.13;;;17.70;66.60;;;;;;4934700;29;20114;-80
2021/06/25 03:40:26;;;;;;;11.70;6.70;;;17.70;67.70;;;;;;4931646;29;20039;-79
2021/06/25 03:42:52;;;;;;;9.82;6.18;;;17.70;67.20;;;;;;4940333;29;20522;-79
2021/06/25 03:45:17;;;;;;;10.95;6.57;;;17.70;67.40;;;;;;4938536;29;20051;-79
2021/06/25 03:47:43;;;;;;;12.43;7.50;;;17.70;68.50;;;;;;4939414;29;20062;-81
2021/06/25 03:50:11;;;;;;;11.57;7.10;;;17.70;70.60;;;;;;4939343;29;20038;-80
2021/06/25 03:52:37;;;;;;;10.40;6.40;;;17.70;69.10;;;;;;4927828;29;20063;-80
2021/06/25 03:55:05;;;;;;;12.35;7.07;;;17.60;68.90;;;;;;4939527;29;20510;-80
2021/06/25 03:57:32;;;;;;;10.30;6.85;;;17.70;69.90;;;;;;4923074;29;20031;-80
2021/06/25 03:59:57;;;;;;;11.50;7.07;;;17.60;69.20;;;;;;4937997;29;20053;-79
2021/06/25 04:02:23;;;;;;;11.25;7.32;;;17.60;70.20;;;;;;4933499;29;20075;-78
2021/06/25 04:04:49;;;;;;;10.50;7.15;;;17.60;70.20;;;;;;4938218;29;20058;-79
2021/06/25 04:07:15;;;;;;;11.57;6.38;;;17.60;70.80;;;;;;4939581;29;20027;-80
2021/06/25 04:09:41;;;;;;;11.35;6.60;;;17.50;70.50;;;;;;4939568;29;20106;-80
2021/06/25 04:12:07;;;;;;;10.32;6.78;;;17.50;70.20;;;;;;4939457;29;20042;-80
2021/06/25 04:14:33;;;;;;;13.35;7.65;;;17.50;69.80;;;;;;4937604;29;20020;-80
2021/06/25 04:16:59;;;;;;;10.50;6.38;;;17.50;69.20;;;;;;4938859;29;20046;-80
2021/06/25 04:19:24;;;;;;;11.63;7.05;;;17.60;68.70;;;;;;4938148;29;20101;-80
2021/06/25 04:21:50;;;;;;;11.30;7.18;;;17.50;69.20;;;;;;4939357;29;20036;-81
2021/06/25 04:24:16;;;;;;;11.30;6.70;;;17.60;69.90;;;;;;4938805;29;20028;-80
2021/06/25 04:26:43;;;;;;;12.02;7.13;;;17.60;69.90;;;;;;4932425;29;20035;-79
2021/06/25 04:29:12;;;;;;;10.93;6.75;;;17.60;69.70;;;;;;4930542;29;20115;-80
2021/06/25 04:31:39;;;;;;;12.40;6.80;;;17.60;69.70;;;;;;4938055;29;20042;-78
2021/06/25 04:34:05;;;;;;;13.02;6.75;;;17.60;69.50;;;;;;4937322;29;20092;-78
2021/06/25 04:36:31;;;;;;;11.57;6.93;;;17.60;70.10;;;;;;4938916;29;20091;-78
2021/06/25 04:38:57;;;;;;;9.98;6.55;;;17.60;69.40;;;;;;4936741;29;20031;-78
2021/06/25 04:41:23;;;;;;;11.40;6.97;;;17.60;68.80;;;;;;4942879;29;20465;-78
2021/06/25 04:43:49;;;;;;;10.18;6.53;;;17.60;69.00;;;;;;4942562;29;20035;-78
2021/06/25 04:46:15;;;;;;;11.15;6.32;;;17.60;68.30;;;;;;4942097;29;20057;-79
2021/06/25 04:48:44;;;;;;;11.52;6.57;;;17.60;67.90;;;;;;4943400;29;20055;-78
2021/06/25 04:51:10;;;;;;;10.05;6.57;;;17.70;67.80;;;;;;4942324;29;20506;-78
2021/06/25 04:53:36;;;;;;;10.98;6.88;;;17.70;68.00;;;;;;4942214;29;20050;-78
2021/06/25 04:56:01;;;;;;;12.68;6.30;;;17.70;67.80;;;;;;4942590;29;20039;-78
2021/06/25 04:58:28;;;;;;;10.48;6.55;;;17.70;67.70;;;;;;4941983;29;20039;-78
2021/06/25 05:00:58;;;;;;;10.40;6.53;;;17.70;68.00;;;;;;4941918;29;20031;-79
2021/06/25 05:03:24;;;;;;;14.90;7.05;;;17.70;67.60;;;;;;4942458;29;20062;-78
2021/06/25 05:05:50;;;;;;;11.80;7.15;;;17.70;67.70;;;;;;4941224;29;20122;-78
2021/06/25 05:08:15;;;;;;;10.13;7.22;;;17.70;68.60;;;;;;4942775;29;20039;-78
2021/06/25 05:10:42;;;;;;;12.32;7.70;;;17.70;68.00;;;;;;4942160;29;20059;-78
2021/06/25 05:13:08;;;;;;;10.48;6.72;;;17.70;68.00;;;;;;4942569;29;20028;-78
2021/06/25 05:15:34;;;;;;;10.07;6.32;;;17.70;67.50;;;;;;4941693;29;20022;-78
2021/06/25 05:18:17;;;;;;;11.18;6.93;;;17.70;68.10;;;;;;4938919;29;20053;-78
2021/06/25 05:20:44;;;;;;;9.13;5.85;;;17.70;67.50;;;;;;4931528;29;20092;-78
2021/06/25 05:23:11;;;;;;;9.32;6.38;;;17.70;68.20;;;;;;4941244;29;20128;-78
2021/06/25 05:25:37;;;;;;;10.10;6.35;;;17.70;68.40;;;;;;4937619;29;20462;-78
2021/06/25 05:28:04;;;;;;;10.30;6.25;;;17.70;68.40;;;;;;4939960;29;20059;-78
2021/06/25 05:30:30;;;;;;;11.63;7.10;;;17.70;68.80;;;;;;4939519;29;20039;-78
2021/06/25 05:32:58;;;;;;;9.88;6.18;;;17.70;68.20;;;;;;4942541;29;20034;-78
2021/06/25 05:35:30;;;;;;;9.52;6.47;;;17.70;68.00;;;;;;4937769;29;20019;-78
2021/06/25 05:37:56;;;;;;;9.10;6.05;;;17.80;68.10;;;;;;4937386;29;20028;-78
2021/06/25 05:40:22;;;;;;;13.05;6.82;;;17.80;68.60;;;;;;4938594;29;20032;-78
2021/06/25 05:42:48;;;;;;;9.65;6.22;;;17.80;68.40;;;;;;4941621;29;20039;-78
2021/06/25 05:45:14;;;;;;;12.85;6.82;;;17.80;70.50;;;;;;4940989;29;20058;-78
2021/06/25 05:47:40;;;;;;;10.15;6.75;;;17.80;70.40;;;;;;4936737;29;20040;-78
2021/06/25 05:50:06;;;;;;;11.70;6.43;;;17.80;71.50;;;;;;4940446;29;20086;-78
2021/06/25 05:52:32;;;;;;;10.40;7.05;;;17.80;71.20;;;;;;4939308;29;20597;-78
2021/06/25 05:54:57;;;;;;;12.30;6.75;;;17.80;71.00;;;;;;4941507;29;20031;-78
2021/06/25 05:57:23;;;;;;;11.63;6.60;;;17.90;70.60;;;;;;4939623;29;20102;-78
2021/06/25 05:59:49;;;;;;;11.52;7.75;;;17.90;70.10;;;;;;4944464;29;20051;-78
2021/06/25 06:02:15;;;;;;;12.23;7.50;;;17.90;70.90;;;;;;4940159;29;20031;-78
2021/06/25 06:04:41;;;;;;;12.13;7.90;;;17.90;72.30;;;;;;4941312;29;20028;-78
2021/06/25 06:07:07;;;;;;;11.07;7.10;;;17.90;71.10;;;;;;4941198;29;20101;-78
2021/06/25 06:09:32;;;;;;;12.23;7.50;;;17.90;71.10;;;;;;4940569;29;20028;-78
2021/06/25 06:11:58;;;;;;;10.73;6.63;;;18.00;70.80;;;;;;4940632;29;20032;-78
2021/06/25 06:14:24;;;;;;;11.40;8.57;;;17.90;71.10;;;;;;4938885;29;20079;-77
2021/06/25 06:16:50;;;;;;;14.02;7.68;;;18.00;72.10;;;;;;4940341;29;20463;-78
2021/06/25 06:19:16;;;;;;;13.90;7.63;;;18.00;72.80;;;;;;4940967;29;20107;-78
2021/06/25 06:33:02;;;;;;;13.73;7.22;;;17.90;70.40;;;;;;4941020;29;20031;-79
2021/06/25 06:35:28;;;;;;;11.05;7.15;;;17.90;70.20;;;;;;4932663;29;20553;-79
2021/06/25 06:38:00;;;;;;;12.52;8.63;;;18.00;70.30;;;;;;4939457;29;20027;-78
2021/06/25 06:40:26;;;;;;;14.77;8.10;;;17.90;71.10;;;;;;4957006;28;20035;-78
2021/06/25 06:42:52;;;;;;;15.07;8.90;;;18.00;70.90;;;;;;4940900;29;20030;-79
2021/06/25 06:45:18;;;;;;;13.25;8.52;;;18.00;71.00;;;;;;4938193;29;20134;-78
2021/06/25 06:47:45;;;;;;;15.38;8.63;;;18.00;70.90;;;;;;4932236;29;20556;-78
2021/06/25 06:50:12;;;;;;;15.20;8.98;;;18.10;72.60;;;;;;4939848;29;20042;-78
2021/06/25 06:52:43;;;;;;;13.02;8.43;;;18.10;71.80;;;;;;4939257;29;20039;-80
2021/06/25 06:55:10;;;;;;;14.43;8.75;;;18.20;71.50;;;;;;4940699;29;20023;-78
2021/06/25 06:57:36;;;;;;;15.48;9.30;;;18.30;71.90;;;;;;4940313;29;20015;-78
2021/06/25 07:00:03;;;;;;;13.48;8.07;;;18.30;71.70;;;;;;4939113;29;20534;-78
2021/06/25 07:02:29;;;;;;;15.13;8.82;;;18.30;71.50;;;;;;4940266;29;20030;-79
2021/06/25 07:04:54;;;;;;;11.88;7.18;;;18.40;71.10;;;;;;4941076;29;20102;-78
2021/06/25 07:07:20;;;;;;;14.65;8.63;;;18.40;71.00;;;;;;4940606;29;20399;-78
2021/06/25 07:09:46;;;;;;;14.60;9.00;;;18.50;71.90;;;;;;4939415;29;20505;-78
2021/06/25 07:12:12;;;;;;;12.27;8.57;;;18.50;71.30;;;;;;4928483;29;20040;-78
2021/06/25 07:14:37;;;;;;;12.75;8.20;;;18.50;71.30;;;;;;4940293;29;20535;-78
2021/06/25 07:17:03;;;;;;;15.55;9.50;;;18.50;70.90;;;;;;4938850;29;20031;-78
2021/06/25 07:19:29;;;;;;;14.43;8.80;;;18.50;71.20;;;;;;4936783;29;20360;-78
2021/06/25 07:21:55;;;;;;;15.05;9.45;;;18.50;71.00;;;;;;4939111;29;20050;-78
2021/06/25 07:24:21;;;;;;;13.00;8.38;;;18.50;71.10;;;;;;4939276;29;20031;-78
2021/06/25 07:26:46;;;;;;;15.30;9.25;;;18.50;70.80;;;;;;4939156;29;20035;-81
2021/06/25 07:29:15;;;;;;;13.95;9.60;;;18.60;71.00;;;;;;4939091;29;20406;-79
2021/06/25 07:31:42;;;;;;;15.98;10.38;;;18.60;71.50;;;;;;4937763;29;20039;-82
2021/06/25 07:34:07;;;;;;;15.25;9.70;;;18.70;71.00;;;;;;4936645;29;20030;-88
2021/06/25 07:36:33;;;;;;;15.05;10.30;;;18.70;71.70;;;;;;4940380;29;20583;-86
2021/06/25 07:39:00;;;;;;;14.20;10.05;;;18.80;71.60;;;;;;4936406;29;20028;-78
2021/06/25 07:41:26;;;;;;;13.52;9.55;;;18.80;71.10;;;;;;4939684;29;20105;-82
2021/06/25 07:43:52;;;;;;;15.27;9.73;;;18.90;71.50;;;;;;4938110;29;20036;-81
2021/06/25 07:46:18;;;;;;;13.77;9.80;;;19.00;71.60;;;;;;4938763;29;20046;-78
2021/06/25 07:48:44;;;;;;;15.52;9.35;;;19.00;71.70;;;;;;4934606;29;20047;-80
2021/06/25 07:51:09;;;;;;;12.80;9.07;;;19.00;72.50;;;;;;4939267;29;20056;-79
2021/06/25 07:53:35;;;;;;;14.63;9.95;;;19.00;71.50;;;;;;4939536;29;20035;-85
2021/06/25 07:56:01;;;;;;;16.55;10.00;;;19.00;71.80;;;;;;4938933;29;20055;-79
2021/06/25 07:58:27;;;;;;;14.68;10.05;;;19.10;71.80;;;;;;4939649;29;20079;-80
2021/06/25 08:00:53;;;;;;;16.05;11.68;;;19.20;71.90;;;;;;4938340;29;20036;-80
2021/06/25 08:03:18;;;;;;;14.38;10.82;;;19.20;72.20;;;;;;4939887;29;20028;-79
2021/06/25 08:05:44;;;;;;;14.23;9.98;;;19.30;72.10;;;;;;4939376;29;20095;-82
2021/06/25 08:08:10;;;;;;;13.20;8.93;;;19.40;71.70;;;;;;4935536;29;20040;-78
2021/06/25 08:10:36;;;;;;;13.07;9.27;;;19.40;70.70;;;;;;4938984;29;20027;-77
2021/06/25 08:13:02;;;;;;;14.52;8.63;;;19.30;70.80;;;;;;4938978;29;20030;-79
2021/06/25 08:15:29;;;;;;;13.48;8.98;;;19.40;70.00;;;;;;4940329;29;20134;-78
2021/06/25 08:17:55;;;;;;;15.77;9.65;;;19.40;70.10;;;;;;4943260;29;20016;-83
2021/06/25 08:20:20;;;;;;;14.50;9.40;;;19.40;69.90;;;;;;4943299;29;20031;-81
2021/06/25 08:22:46;;;;;;;13.05;9.35;;;19.40;69.90;;;;;;4942899;29;20459;-80
2021/06/25 08:25:12;;;;;;;12.88;8.63;;;19.40;69.90;;;;;;4942131;29;20082;-83
2021/06/25 08:27:38;;;;;;;15.50;9.85;;;19.40;69.70;;;;;;4940169;29;20447;-78
2021/06/25 08:30:05;;;;;;;15.23;8.70;;;19.40;69.80;;;;;;4942108;28;20036;-74
2021/06/25 08:32:31;;;;;;;16.73;11.30;;;19.40;69.60;;;;;;4943134;29;20386;-77
2021/06/25 08:34:57;;;;;;;52.20;40.28;;;19.40;69.60;;;;;;4934353;29;20028;-77
2021/06/25 08:37:23;;;;;;;27.33;17.98;;;19.40;69.50;;;;;;4942035;29;20104;-74
2021/06/25 08:39:49;;;;;;;18.98;10.93;;;19.40;69.70;;;;;;4942125;29;20024;-72
2021/06/25 08:42:15;;;;;;;18.65;9.10;;;19.50;70.00;;;;;;4943275;29;20023;-73
2021/06/25 08:44:41;;;;;;;13.30;8.65;;;19.50;69.40;;;;;;4942792;29;20096;-73
2021/06/25 08:47:08;;;;;;;15.02;8.32;;;19.50;69.30;;;;;;4941681;29;20035;-73
2021/06/25 08:49:36;;;;;;;14.23;8.05;;;19.60;69.40;;;;;;4942742;29;20043;-73
2021/06/25 08:52:03;;;;;;;14.52;8.85;;;19.60;69.30;;;;;;4942625;29;20115;-74
2021/06/25 08:54:29;;;;;;;16.23;8.85;;;19.60;69.20;;;;;;4938475;29;20027;-75
2021/06/25 08:56:57;;;;;;;13.45;8.13;;;19.60;69.20;;;;;;4940313;29;20387;-73
2021/06/25 08:59:23;;;;;;;15.48;8.55;;;19.60;69.00;;;;;;4943061;29;20061;-72
2021/06/25 09:01:50;;;;;;;14.55;8.48;;;19.60;68.80;;;;;;4942221;29;20038;-73
2021/06/25 09:04:42;;;;;;;12.95;8.23;;;19.60;68.50;;;;;;4942805;29;20036;-73
2021/06/25 09:07:09;;;;;;;13.07;7.90;;;19.60;68.40;;;;;;4940367;29;20039;-72
2021/06/25 09:09:49;;;;;;;14.68;7.65;;;19.60;68.50;;;;;;4933098;29;20090;-74
2021/06/25 09:12:18;;;;;;;10.57;6.78;;;19.60;68.00;;;;;;4942047;29;20028;-72
2021/06/25 09:15:11;;;;;;;28.38;17.33;;;19.60;67.60;;;;;;4942729;29;20111;-76
2021/06/25 09:17:58;;;;;;;24.58;15.98;;;19.70;68.10;;;;;;4931947;29;20048;-75
2021/06/25 09:20:45;;;;;;;14.32;9.15;;;19.70;67.40;;;;;;4929504;29;20102;-76
2021/06/25 09:23:22;;;;;;;11.80;7.00;;;19.70;67.80;;;;;;4942083;29;20027;-72
2021/06/25 09:25:56;;;;;;;41.92;26.23;;;19.80;67.50;;;;;;4935171;29;20034;-74
2021/06/25 09:28:26;;;;;;;19.98;13.40;;;19.80;66.90;;;;;;4940401;29;20109;-72
2021/06/25 09:30:52;;;;;;;7.43;4.82;;;19.90;66.60;;;;;;4938615;29;20034;-73
2021/06/25 09:33:19;;;;;;;10.07;4.68;;;19.80;65.10;;;;;;4942189;29;20038;-73
2021/06/25 09:35:52;;;;;;;7.38;4.60;;;19.80;65.00;;;;;;4928378;29;20032;-75
2021/06/25 09:38:35;;;;;;;6.82;4.30;;;19.80;65.60;;;;;;4932632;29;20047;-75
2021/06/25 09:41:02;;;;;;;8.27;4.63;;;19.80;65.90;;;;;;4938064;29;20027;-75
2021/06/25 09:43:34;;;;;;;6.97;4.30;;;19.70;65.80;;;;;;4936354;29;20585;-75
2021/06/25 09:46:07;;;;;;;8.80;4.68;;;19.70;65.70;;;;;;4940066;29;20040;-75
2021/06/25 09:48:53;;;;;;;8.98;4.60;;;19.80;65.60;;;;;;4937721;29;20034;-71
2021/06/25 09:51:20;;;;;;;9.10;4.65;;;19.80;65.60;;;;;;4936799;29;20079;-77
2021/06/25 09:54:08;;;;;;;8.98;4.43;;;19.80;65.80;;;;;;4941916;29;20518;-71
2021/06/25 09:57:06;;;;;;;10.40;4.85;;;19.90;65.90;;;;;;4940430;29;20028;-70
2021/06/25 09:59:52;;;;;;;8.27;4.40;;;20.00;66.20;;;;;;4940041;29;20054;-71
2021/06/25 10:02:20;;;;;;;9.80;6.00;;;20.10;66.20;;;;;;4941499;29;20095;-70
2021/06/25 10:05:09;;;;;;;9.32;5.32;;;20.20;66.00;;;;;;4928189;29;20032;-72
2021/06/25 10:07:34;;;;;;;8.40;4.47;;;20.30;66.40;;;;;;4939924;29;20066;-70
2021/06/25 10:10:12;;;;;;;9.15;4.53;;;20.50;67.00;;;;;;4941555;29;20403;-71
2021/06/25 10:12:40;;;;;;;8.82;5.07;;;20.60;67.40;;;;;;4933444;29;20093;-71
2021/06/25 10:15:07;;;;;;;9.75;5.25;;;20.80;65.80;;;;;;4933513;29;20031;-70
2021/06/25 10:17:35;;;;;;;8.35;4.95;;;20.80;66.10;;;;;;4939892;29;20024;-70
2021/06/25 10:20:12;;;;;;;11.35;5.80;;;20.90;65.20;;;;;;4936740;29;20031;-71
2021/06/25 10:22:40;;;;;;;9.38;5.40;;;20.90;64.60;;;;;;4931468;29;20495;-70
2021/06/25 10:25:08;;;;;;;9.90;5.72;;;20.90;64.00;;;;;;4922896;29;20020;-71
2021/06/25 10:27:35;;;;;;;12.02;7.10;;;20.90;64.90;;;;;;4924649;29;20107;-70
2021/06/25 10:30:03;;;;;;;13.50;6.30;;;20.90;65.40;;;;;;4941254;29;20035;-70
2021/06/25 10:32:29;;;;;;;9.93;6.75;;;20.90;64.50;;;;;;4929062;29;20399;-70
2021/06/25 10:34:57;;;;;;;10.45;6.10;;;20.90;64.30;;;;;;4941584;29;20087;-71
2021/06/25 10:37:28;;;;;;;8.25;5.53;;;20.80;64.10;;;;;;4933205;29;20024;-72
2021/06/25 10:39:54;;;;;;;12.48;6.30;;;20.80;64.70;;;;;;4940706;29;20059;-74
2021/06/25 10:42:19;;;;;;;11.00;6.20;;;20.80;64.80;;;;;;4932133;29;20039;-73
2021/06/25 10:44:56;;;;;;;10.13;6.03;;;20.90;65.00;;;;;;4935150;29;20110;-71
2021/06/25 10:47:34;;;;;;;11.50;6.13;;;20.80;64.90;;;;;;4943381;29;20488;-75
2021/06/25 10:50:00;;;;;;;10.65;6.13;;;20.90;65.30;;;;;;4953143;29;20110;-78
2021/06/25 10:52:29;;;;;;;8.98;5.95;;;20.90;65.80;;;;;;4932858;29;20064;-72
2021/06/25 10:55:02;;;;;;;8.75;5.65;;;20.90;65.10;;;;;;4934833;29;20475;-74
2021/06/25 10:57:29;;;;;;;8.95;5.50;;;20.90;65.60;;;;;;4940768;29;20522;-72
2021/06/25 10:59:56;;;;;;;9.77;5.40;;;20.90;66.30;;;;;;4923622;29;20031;-71
2021/06/25 11:02:44;;;;;;;11.05;5.95;;;20.90;65.80;;;;;;4921602;29;20468;-77
2021/06/25 11:05:25;;;;;;;9.27;5.25;;;20.90;66.30;;;;;;4937584;29;20047;-71
2021/06/25 11:08:00;;;;;;;12.50;6.07;;;20.90;66.70;;;;;;4937606;29;20032;-70
2021/06/25 11:10:29;;;;;;;9.45;6.20;;;21.00;67.00;;;;;;4929325;29;20553;-71
2021/06/25 11:13:13;;;;;;;11.13;5.72;;;21.00;67.30;;;;;;4932526;29;20035;-69
2021/06/25 11:15:46;;;;;;;10.68;6.10;;;21.10;67.00;;;;;;4938811;29;20028;-70
2021/06/25 11:18:22;;;;;;;15.80;10.05;;;21.10;66.70;;;;;;4940557;29;20027;-71
2021/06/25 11:20:51;;;;;;;10.60;6.45;;;21.20;67.20;;;;;;4940837;29;20046;-73
2021/06/25 11:23:37;;;;;;;12.05;7.07;;;21.30;67.50;;;;;;4940435;29;20475;-72
2021/06/25 11:26:25;;;;;;;10.25;6.50;;;21.50;67.00;;;;;;4930946;29;20057;-71
2021/06/25 11:28:53;;;;;;;11.88;6.80;;;21.60;67.10;;;;;;4921538;29;20034;-72
2021/06/25 11:31:27;;;;;;;21.70;14.60;;;21.70;66.70;;;;;;4930887;29;20487;-70
2021/06/25 11:36:33;;;;;;;23.27;16.10;;;21.70;66.00;;;;;;4926996;29;20371;-70
2021/06/25 11:39:08;;;;;;;12.23;7.95;;;21.70;65.70;;;;;;4927039;29;20403;-71
2021/06/25 11:41:37;;;;;;;12.00;6.97;;;21.70;65.80;;;;;;4932159;29;20024;-71
2021/06/25 11:44:09;;;;;;;13.73;6.53;;;21.70;65.50;;;;;;4935630;29;20051;-72
2021/06/25 11:46:35;;;;;;;10.27;6.45;;;21.70;65.40;;;;;;4937342;29;20056;-71
2021/06/25 11:49:04;;;;;;;11.25;6.07;;;21.80;66.20;;;;;;4934422;29;20501;-71
2021/06/25 11:51:36;;;;;;;9.07;5.28;;;21.90;65.70;;;;;;4922364;29;20043;-71
2021/06/25 11:54:06;;;;;;;9.95;5.18;;;22.00;65.20;;;;;;4934995;29;20071;-74
2021/06/25 11:56:32;;;;;;;8.07;5.05;;;22.10;64.70;;;;;;4939484;29;20086;-73
2021/06/25 11:59:06;;;;;;;8.75;5.20;;;22.10;64.30;;;;;;4936758;29;20119;-75
2021/06/25 12:01:33;;;;;;;8.27;4.75;;;22.20;64.60;;;;;;4921780;29;20093;-76
2021/06/25 12:04:00;;;;;;;11.80;5.25;;;22.20;64.20;;;;;;4931183;29;20028;-75
2021/06/25 12:06:26;;;;;;;9.68;5.40;;;22.20;63.80;;;;;;4932708;29;20111;-76
2021/06/25 12:09:00;;;;;;;9.77;5.55;;;22.10;63.80;;;;;;4928539;29;20051;-73
2021/06/25 12:11:30;;;;;;;9.82;5.70;;;22.10;64.40;;;;;;4938035;29;20095;-71
2021/06/25 12:14:03;;;;;;;11.20;5.60;;;22.00;64.40;;;;;;4935196;29;20499;-72
2021/06/25 12:16:30;;;;;;;7.60;4.90;;;22.00;64.20;;;;;;4935105;29;20035;-71
2021/06/25 12:18:57;;;;;;;10.63;5.88;;;22.00;64.70;;;;;;4926231;29;20043;-73
2021/06/25 12:21:23;;;;;;;13.23;5.93;;;21.90;64.70;;;;;;4929431;29;20087;-71
2021/06/25 12:23:51;;;;;;;10.32;5.82;;;21.90;64.30;;;;;;4920779;29;20024;-71
2021/06/25 12:26:21;;;;;;;11.25;5.90;;;21.90;64.20;;;;;;4924689;29;20035;-70
2021/06/25 12:28:49;;;;;;;9.25;6.32;;;21.90;64.60;;;;;;4930843;29;20032;-68
2021/06/25 12:31:21;;;;;;;10.13;6.10;;;21.90;64.90;;;;;;4932819;29;20091;-71
2021/06/25 12:33:53;;;;;;;9.88;6.35;;;21.90;65.30;;;;;;4927962;29;20116;-71
2021/06/25 12:36:19;;;;;;;10.77;6.50;;;21.90;66.20;;;;;;4922300;29;20040;-70
2021/06/25 12:38:51;;;;;;;8.18;5.32;;;22.00;66.00;;;;;;4930655;29;20024;-70
2021/06/25 12:41:17;;;;;;;12.68;5.93;;;21.90;66.00;;;;;;4939113;29;20043;-74
2021/06/25 12:43:46;;;;;;;10.60;6.15;;;22.00;66.10;;;;;;4937931;29;20020;-70
2021/06/25 12:46:17;;;;;;;63.42;43.67;;;21.90;65.80;;;;;;4920384;29;20056;-70
2021/06/25 12:48:55;;;;;;;33.08;22.45;;;22.00;66.00;;;;;;4922300;29;20506;-70
2021/06/25 12:51:29;;;;;;;13.57;8.30;;;21.90;65.70;;;;;;4920653;29;20028;-72
2021/06/25 12:53:58;;;;;;;9.88;5.80;;;21.90;65.70;;;;;;4920708;29;20049;-72
2021/06/25 12:56:28;;;;;;;10.15;5.43;;;22.00;65.70;;;;;;4920282;29;20032;-74